createdAt,value
2018-02-20T00:00:28.348Z,33.20
2018-02-20T00:01:29.094Z,33.70
2018-02-20T00:02:49.968Z,33.90
2018-02-20T00:03:50.795Z,33.60
2018-02-20T00:04:50.654Z,32.30
2018-02-20T00:05:50.337Z,33.80
2018-02-20T00:06:50.913Z,33.40
2018-02-20T00:07:50.539Z,32.90
2018-02-20T00:08:50.394Z,33.20
2018-02-20T00:09:51.227Z,32.60
2018-02-20T00:10:51.119Z,33.90
2018-02-20T00:11:50.796Z,33.00
2018-02-20T00:12:50.341Z,34.10
2018-02-20T00:13:51.155Z,32.30
2018-02-20T00:14:50.508Z,35.70
2018-02-20T00:15:49.992Z,33.80
2018-02-20T00:16:50.829Z,31.70
2018-02-20T00:17:50.727Z,33.60
2018-02-20T00:18:50.295Z,32.80
2018-02-20T00:19:51.616Z,34.10
2018-02-20T00:20:50.456Z,33.60
2018-02-20T00:21:50.324Z,32.90
2018-02-20T00:22:50.747Z,30.80
2018-02-20T00:23:50.427Z,33.30
2018-02-20T00:24:50.359Z,31.60
2018-02-20T00:25:50.833Z,33.00
2018-02-20T00:27:12.646Z,33.70
2018-02-20T00:28:12.652Z,32.60
2018-02-20T00:29:12.301Z,33.10
2018-02-20T00:30:12.241Z,34.70
2018-02-20T00:31:12.679Z,32.30
2018-02-20T00:32:33.422Z,33.60
2018-02-20T00:33:34.110Z,33.70
2018-02-20T00:34:33.647Z,35.20
2018-02-20T00:35:55.476Z,33.40
2018-02-20T00:36:56.408Z,33.90
2018-02-20T00:37:55.842Z,34.20
2018-02-20T00:38:56.173Z,33.30
2018-02-20T00:39:56.007Z,32.50
2018-02-20T00:40:56.329Z,32.60
2018-02-20T00:41:56.018Z,33.80
2018-02-20T00:43:17.949Z,31.90
2018-02-20T00:44:18.560Z,32.90
2018-02-20T00:45:18.191Z,33.70
2018-02-20T00:46:18.652Z,33.00
2018-02-20T00:47:18.304Z,32.60
2018-02-20T00:48:19.067Z,32.20
2018-02-20T00:49:18.604Z,33.30
2018-02-20T00:50:17.872Z,33.00
2018-02-20T00:51:18.629Z,33.90
2018-02-20T00:52:18.595Z,34.70
2018-02-20T00:53:18.113Z,34.40
2018-02-20T00:54:18.701Z,35.00
2018-02-20T00:55:18.251Z,34.40
2018-02-20T00:56:18.442Z,34.50
2018-02-20T00:57:17.852Z,37.00
2018-02-20T00:58:18.673Z,33.90
2018-02-20T00:59:18.518Z,34.80
2018-02-20T01:00:39.412Z,33.20
2018-02-20T01:01:39.927Z,33.50
2018-02-20T01:02:40.880Z,34.90
2018-02-20T01:03:40.800Z,34.50
2018-02-20T01:04:40.510Z,34.20
2018-02-20T01:05:40.189Z,34.10
2018-02-20T01:06:39.667Z,34.20
2018-02-20T01:07:40.423Z,33.70
2018-02-20T01:08:39.887Z,33.80
2018-02-20T01:09:40.614Z,35.30
2018-02-20T01:10:40.172Z,33.30
2018-02-20T01:11:40.001Z,34.60
2018-02-20T01:12:40.403Z,33.00
2018-02-20T01:13:40.312Z,34.70
2018-02-20T01:14:40.064Z,34.10
2018-02-20T01:15:39.536Z,33.60
2018-02-20T01:16:40.080Z,34.90
2018-02-20T01:17:39.637Z,34.60
2018-02-20T01:18:40.290Z,33.10
2018-02-20T01:19:39.778Z,35.20
2018-02-20T01:20:40.566Z,32.50
2018-02-20T01:21:40.272Z,34.30
2018-02-20T01:22:40.034Z,34.00
2018-02-20T01:23:39.896Z,35.30
2018-02-20T01:24:40.135Z,34.90
2018-02-20T01:25:39.415Z,33.20
2018-02-20T01:26:40.259Z,34.60
2018-02-20T01:27:40.185Z,34.60
2018-02-20T01:28:39.593Z,34.70
2018-02-20T01:29:40.382Z,35.00
2018-02-20T01:30:39.533Z,34.90
2018-02-20T01:31:40.163Z,36.10
2018-02-20T01:32:39.422Z,35.10
2018-02-20T01:33:40.197Z,35.50
2018-02-20T01:34:39.959Z,37.60
2018-02-20T01:36:00.849Z,35.70
2018-02-20T01:37:01.205Z,35.60
2018-02-20T01:38:01.842Z,36.80
2018-02-20T01:39:01.198Z,33.50
2018-02-20T01:40:01.881Z,35.50
2018-02-20T01:41:01.312Z,34.70
2018-02-20T01:42:00.810Z,37.60
2018-02-20T01:43:01.281Z,34.80
2018-02-20T01:44:01.311Z,35.40
2018-02-20T01:45:00.543Z,36.70
2018-02-20T01:46:22.859Z,34.90
2018-02-20T01:47:23.306Z,35.60
2018-02-20T01:48:24.251Z,36.00
2018-02-20T01:49:23.919Z,35.20
2018-02-20T01:50:23.358Z,35.70
2018-02-20T01:51:24.138Z,35.50
2018-02-20T01:52:23.490Z,34.90
2018-02-20T01:53:24.225Z,36.10
2018-02-20T01:54:46.147Z,33.10
2018-02-20T01:55:46.520Z,35.10
2018-02-20T01:56:46.130Z,34.40
2018-02-20T01:57:46.823Z,36.00
2018-02-20T01:59:07.578Z,36.70
2018-02-20T02:00:08.398Z,35.90
2018-02-20T02:01:08.057Z,34.20
2018-02-20T02:02:30.293Z,33.50
2018-02-20T02:03:30.930Z,32.60
2018-02-20T02:04:30.570Z,35.10
2018-02-20T02:05:30.878Z,34.30
2018-02-20T02:06:30.459Z,32.10
2018-02-20T02:07:31.105Z,33.50
2018-02-20T02:08:51.709Z,34.40
2018-02-20T02:09:52.211Z,34.80
2018-02-20T02:11:35.609Z,32.80
2018-02-20T02:12:36.571Z,33.80
2018-02-20T02:13:35.969Z,34.50
2018-02-20T02:14:35.887Z,35.30
2018-02-20T02:15:35.218Z,34.50
2018-02-20T02:16:36.006Z,34.10
2018-02-20T02:17:35.312Z,35.50
2018-02-20T02:18:36.063Z,36.20
2018-02-20T02:19:35.303Z,34.70
2018-02-20T02:20:35.684Z,36.10
2018-02-20T02:21:36.469Z,34.60
2018-02-20T02:22:35.895Z,33.40
2018-02-20T02:23:35.669Z,36.60
2018-02-20T02:24:36.441Z,35.60
2018-02-20T02:25:36.064Z,35.70
2018-02-20T02:26:35.687Z,35.50
2018-02-20T02:27:36.179Z,35.00
2018-02-20T02:28:35.696Z,36.20
2018-02-20T02:29:36.517Z,35.00
2018-02-20T02:30:36.355Z,34.00
2018-02-20T02:31:35.626Z,34.90
2018-02-20T02:32:36.173Z,35.60
2018-02-20T02:33:35.856Z,36.60
2018-02-20T02:34:35.573Z,36.10
2018-02-20T02:35:35.858Z,35.80
2018-02-20T02:36:35.308Z,35.80
2018-02-20T02:37:36.146Z,36.10
2018-02-20T02:38:35.938Z,34.10
2018-02-20T02:39:35.358Z,35.90
2018-02-20T02:40:36.287Z,35.10
2018-02-20T02:41:35.722Z,36.20
2018-02-20T02:42:36.668Z,36.80
2018-02-20T02:43:36.484Z,36.70
2018-02-20T02:44:36.283Z,37.90
2018-02-20T02:45:35.979Z,38.40
2018-02-20T02:46:35.507Z,36.10
2018-02-20T02:47:36.186Z,37.80
2018-02-20T02:48:35.722Z,36.50
2018-02-20T02:49:36.438Z,37.40
2018-02-20T02:50:35.937Z,37.30
2018-02-20T02:51:56.582Z,37.00
2018-02-20T02:52:57.454Z,35.50
2018-02-20T02:53:57.103Z,37.10
2018-02-20T02:54:56.402Z,38.10
2018-02-20T02:55:56.850Z,36.20
2018-02-20T02:56:57.605Z,36.50
2018-02-20T02:57:57.145Z,35.10
2018-02-20T02:58:56.487Z,35.50
2018-02-20T02:59:56.917Z,35.60
2018-02-20T03:00:57.312Z,34.50
2018-02-20T03:01:56.929Z,34.90
2018-02-20T03:02:57.644Z,35.20
2018-02-20T03:03:56.968Z,34.00
2018-02-20T03:04:56.258Z,34.20
2018-02-20T03:05:57.034Z,34.60
2018-02-20T03:06:56.495Z,34.80
2018-02-20T03:07:56.845Z,33.30
2018-02-20T03:08:56.380Z,35.90
2018-02-20T03:09:57.152Z,36.30
2018-02-20T03:10:56.709Z,34.40
2018-02-20T03:11:57.180Z,34.30
2018-02-20T03:12:57.124Z,34.70
2018-02-20T03:13:57.046Z,36.20
2018-02-20T03:14:56.605Z,36.10
2018-02-20T03:15:57.323Z,37.80
2018-02-20T03:16:56.530Z,36.20
2018-02-20T03:18:18.151Z,37.30
2018-02-20T03:19:18.879Z,34.90
2018-02-20T03:20:18.381Z,36.70
2018-02-20T03:21:18.865Z,35.10
2018-02-20T03:22:18.621Z,34.60
2018-02-20T03:23:18.884Z,35.10
2018-02-20T03:24:19.062Z,36.40
2018-02-20T03:25:18.860Z,36.70
2018-02-20T03:26:19.024Z,35.00
2018-02-20T03:27:18.678Z,35.60
2018-02-20T03:28:18.585Z,38.10
2018-02-20T03:29:19.747Z,37.20
2018-02-20T03:30:19.043Z,40.70
2018-02-20T03:31:18.664Z,39.40
2018-02-20T03:32:40.758Z,38.10
2018-02-20T03:33:41.058Z,37.90
2018-02-20T03:34:40.576Z,36.20
2018-02-20T03:35:40.903Z,34.60
2018-02-20T03:36:41.340Z,35.70
2018-02-20T03:37:41.052Z,34.10
2018-02-20T03:38:41.636Z,34.00
2018-02-20T03:39:41.725Z,33.30
2018-02-20T03:40:41.334Z,34.60
2018-02-20T03:42:01.708Z,32.30
2018-02-20T03:43:02.007Z,31.40
2018-02-20T03:44:02.353Z,31.80
2018-02-20T03:45:03.236Z,32.20
2018-02-20T03:46:02.894Z,32.00
2018-02-20T03:47:02.395Z,31.30
2018-02-20T03:48:02.635Z,30.80
2018-02-20T03:49:02.419Z,32.40
2018-02-20T03:50:03.008Z,31.80
2018-02-20T03:51:02.399Z,34.80
2018-02-20T03:52:02.122Z,37.00
2018-02-20T03:53:02.793Z,36.40
2018-02-20T03:54:02.562Z,36.40
2018-02-20T03:55:02.745Z,36.70
2018-02-20T03:56:02.428Z,35.70
2018-02-20T03:57:23.089Z,40.70
2018-02-20T03:58:23.895Z,37.60
2018-02-20T03:59:23.708Z,33.90
2018-02-20T04:00:23.451Z,35.60
2018-02-20T04:01:24.085Z,35.30
2018-02-20T04:02:23.598Z,36.20
2018-02-20T04:03:23.025Z,37.80
2018-02-20T04:04:23.700Z,37.40
2018-02-20T04:05:23.284Z,39.00
2018-02-20T04:06:23.999Z,38.90
2018-02-20T04:07:23.428Z,37.70
2018-02-20T04:08:23.736Z,91.10
2018-02-20T04:09:23.178Z,51.00
2018-02-20T04:11:06.306Z,41.30
2018-02-20T04:12:06.484Z,40.10
2018-02-20T04:13:06.807Z,37.70
2018-02-20T04:14:06.113Z,35.60
2018-02-20T04:15:06.544Z,36.10
2018-02-20T04:16:07.273Z,34.80
2018-02-20T04:17:07.217Z,86.20
2018-02-20T04:18:07.102Z,42.30
2018-02-20T04:19:06.554Z,65.80
2018-02-20T04:20:05.970Z,45.60
2018-02-20T04:21:06.631Z,39.30
2018-02-20T04:22:06.111Z,38.20
2018-02-20T04:23:06.757Z,83.40
2018-02-20T04:24:06.592Z,48.20
2018-02-20T04:25:06.961Z,53.70
2018-02-20T04:26:06.229Z,49.90
2018-02-20T04:27:06.937Z,49.60
2018-02-20T04:28:06.092Z,42.00
2018-02-20T04:29:06.354Z,37.90
2018-02-20T04:30:06.963Z,37.50
2018-02-20T04:31:06.279Z,37.20
2018-02-20T04:32:07.050Z,35.40
2018-02-20T04:33:06.686Z,38.20
2018-02-20T04:34:27.013Z,36.60
2018-02-20T04:35:27.596Z,36.20
2018-02-20T04:36:28.003Z,36.70
2018-02-20T04:37:27.891Z,35.50
2018-02-20T04:38:27.636Z,36.10
2018-02-20T04:39:28.253Z,36.10
2018-02-20T04:40:27.961Z,37.40
2018-02-20T04:41:27.267Z,37.00
2018-02-20T04:42:28.340Z,36.40
2018-02-20T04:43:28.009Z,36.20
2018-02-20T04:44:27.304Z,37.60
2018-02-20T04:45:27.932Z,37.90
2018-02-20T04:46:27.551Z,36.00
2018-02-20T04:47:49.587Z,36.70
2018-02-20T04:48:50.300Z,36.50
2018-02-20T04:49:50.503Z,36.80
2018-02-20T04:51:11.274Z,35.80
2018-02-20T04:52:11.872Z,36.40
2018-02-20T04:53:11.372Z,36.10
2018-02-20T04:54:11.520Z,35.00
2018-02-20T04:55:33.641Z,36.00
2018-02-20T04:56:34.438Z,37.10
2018-02-20T04:57:34.128Z,36.80
2018-02-20T04:58:54.967Z,37.80
2018-02-20T04:59:54.409Z,38.40
2018-02-20T05:00:55.358Z,38.80
2018-02-20T05:01:55.276Z,39.40
2018-02-20T05:02:55.106Z,38.80
2018-02-20T05:03:54.460Z,38.10
2018-02-20T05:05:16.387Z,37.00
2018-02-20T05:06:16.888Z,36.70
2018-02-20T05:07:16.565Z,38.40
2018-02-20T05:08:17.136Z,38.40
2018-02-20T05:09:17.324Z,37.50
2018-02-20T05:10:16.701Z,36.40
2018-02-20T05:11:17.430Z,36.50
2018-02-20T05:12:17.292Z,36.10
2018-02-20T05:13:16.981Z,36.20
2018-02-20T05:14:16.829Z,35.60
2018-02-20T05:15:16.385Z,36.00
2018-02-20T05:16:16.828Z,35.80
2018-02-20T05:17:17.412Z,35.80
2018-02-20T05:18:17.319Z,34.50
2018-02-20T05:19:16.692Z,35.30
2018-02-20T05:20:16.986Z,35.20
2018-02-20T05:21:16.871Z,37.30
2018-02-20T05:22:16.740Z,37.50
2018-02-20T05:23:17.512Z,38.30
2018-02-20T05:24:17.225Z,38.50
2018-02-20T05:25:16.511Z,39.60
2018-02-20T05:26:16.961Z,38.50
2018-02-20T05:27:16.299Z,38.20
2018-02-20T05:28:16.580Z,38.70
2018-02-20T05:29:38.630Z,38.60
2018-02-20T05:30:39.438Z,38.80
2018-02-20T05:31:39.304Z,40.30
2018-02-20T05:32:39.234Z,39.90
2018-02-20T05:33:39.038Z,40.90
2018-02-20T05:34:38.700Z,41.50
2018-02-20T05:35:38.944Z,39.40
2018-02-20T05:36:38.799Z,40.60
2018-02-20T05:37:38.588Z,40.60
2018-02-20T05:38:39.528Z,42.10
2018-02-20T05:39:39.048Z,39.40
2018-02-20T05:40:38.464Z,41.20
2018-02-20T05:41:39.289Z,39.30
2018-02-20T05:42:39.139Z,38.40
2018-02-20T05:43:38.431Z,41.20
2018-02-20T05:44:38.947Z,40.60
2018-02-20T05:45:38.555Z,40.80
2018-02-20T05:46:39.368Z,40.00
2018-02-20T05:47:39.026Z,40.50
2018-02-20T05:48:38.443Z,39.70
2018-02-20T05:49:39.138Z,38.90
2018-02-20T05:50:38.499Z,40.90
2018-02-20T05:52:00.842Z,39.50
2018-02-20T05:53:01.230Z,39.30
2018-02-20T05:54:00.749Z,40.80
2018-02-20T05:55:01.258Z,39.60
2018-02-20T05:56:00.542Z,40.20
2018-02-20T05:57:00.799Z,40.70
2018-02-20T05:58:01.383Z,41.10
2018-02-20T05:59:00.679Z,40.70
2018-02-20T06:00:01.286Z,41.20
2018-02-20T06:01:01.147Z,41.30
2018-02-20T06:02:00.476Z,41.30
2018-02-20T06:03:01.270Z,41.50
2018-02-20T06:04:00.641Z,41.90
2018-02-20T06:05:01.079Z,43.20
2018-02-20T06:06:02.062Z,43.90
2018-02-20T06:07:01.044Z,43.10
2018-02-20T06:08:00.816Z,42.10
2018-02-20T06:09:01.489Z,41.60
2018-02-20T06:10:00.967Z,41.40
2018-02-20T06:11:01.833Z,41.00
2018-02-20T06:12:01.186Z,39.50
2018-02-20T06:13:01.060Z,39.80
2018-02-20T06:14:01.381Z,41.70
2018-02-20T06:15:01.044Z,40.00
2018-02-20T06:16:01.773Z,40.50
2018-02-20T06:17:01.315Z,41.60
2018-02-20T06:18:01.016Z,42.20
2018-02-20T06:19:00.879Z,42.90
2018-02-20T06:20:01.751Z,44.80
2018-02-20T06:21:22.529Z,43.40
2018-02-20T06:22:23.028Z,42.90
2018-02-20T06:23:22.943Z,42.90
2018-02-20T06:24:23.353Z,44.90
2018-02-20T06:25:23.416Z,47.40
2018-02-20T06:26:22.896Z,49.30
2018-02-20T06:27:23.563Z,46.70
2018-02-20T06:28:23.486Z,45.10
2018-02-20T06:29:23.335Z,46.60
2018-02-20T06:30:23.269Z,46.70
2018-02-20T06:31:22.982Z,48.80
2018-02-20T06:32:23.731Z,46.20
2018-02-20T06:33:23.204Z,45.50
2018-02-20T06:34:22.690Z,47.50
2018-02-20T06:35:23.584Z,47.20
2018-02-20T06:36:23.079Z,49.50
2018-02-20T06:37:23.774Z,48.50
2018-02-20T06:38:23.187Z,48.60
2018-02-20T06:39:22.946Z,47.80
2018-02-20T06:40:23.502Z,48.60
2018-02-20T06:41:44.125Z,47.80
2018-02-20T06:43:49.183Z,49.80
2018-02-20T06:44:44.602Z,48.10
2018-02-20T06:46:27.566Z,46.70
2018-02-20T06:47:28.320Z,47.40
2018-02-20T06:48:27.706Z,47.60
2018-02-20T06:49:27.378Z,47.70
2018-02-20T06:50:28.710Z,45.70
2018-02-20T06:51:27.713Z,48.70
2018-02-20T06:52:28.526Z,47.50
2018-02-20T06:53:28.106Z,47.30
2018-02-20T06:54:49.708Z,48.00
2018-02-20T06:55:51.032Z,44.20
2018-02-20T06:56:49.385Z,45.60
2018-02-20T06:57:50.489Z,45.50
2018-02-20T06:58:49.884Z,44.10
2018-02-20T06:59:49.740Z,42.90
2018-02-20T07:00:49.493Z,43.10
2018-02-20T07:01:50.072Z,43.80
2018-02-20T07:02:49.497Z,40.90
2018-02-20T07:03:50.124Z,41.40
2018-02-20T07:04:49.708Z,39.70
2018-02-20T07:05:50.099Z,41.30
2018-02-20T07:06:50.154Z,42.40
2018-02-20T07:08:11.434Z,39.00
2018-02-20T07:09:12.299Z,38.40
2018-02-20T07:10:11.747Z,38.60
2018-02-20T07:11:11.535Z,38.40
2018-02-20T07:12:06.935Z,37.20
2018-02-20T07:13:06.997Z,37.50
2018-02-20T07:14:07.027Z,38.30
2018-02-20T07:15:07.102Z,37.80
2018-02-20T07:16:06.292Z,38.30
2018-02-20T07:17:07.382Z,39.30
2018-02-20T07:18:07.166Z,42.10
2018-02-20T07:19:06.940Z,40.00
2018-02-20T07:20:06.600Z,38.80
2018-02-20T07:21:28.456Z,38.40
2018-02-20T07:22:50.546Z,37.40
2018-02-20T07:23:50.972Z,38.20
2018-02-20T07:24:51.525Z,38.40
2018-02-20T07:25:51.224Z,37.80
2018-02-20T07:26:50.676Z,39.40
2018-02-20T07:27:51.171Z,38.70
2018-02-20T07:28:51.002Z,38.00
2018-02-20T07:30:12.648Z,38.10
2018-02-20T07:31:13.246Z,39.90
2018-02-20T07:32:34.640Z,38.50
2018-02-20T07:33:35.541Z,37.20
2018-02-20T07:34:35.171Z,37.80
2018-02-20T07:35:35.206Z,37.60
2018-02-20T07:36:34.979Z,36.60
2018-02-20T07:37:34.840Z,35.70
2018-02-20T07:38:34.763Z,36.90
2018-02-20T07:39:35.776Z,36.60
2018-02-20T07:40:35.476Z,36.40
2018-02-20T07:41:35.053Z,35.30
2018-02-20T07:42:34.680Z,35.20
2018-02-20T07:43:35.513Z,35.80
2018-02-20T07:44:35.557Z,36.20
2018-02-20T07:45:34.977Z,35.10
2018-02-20T07:46:34.617Z,36.40
2018-02-20T07:47:35.052Z,36.20
2018-02-20T07:48:56.637Z,37.30
2018-02-20T07:49:57.435Z,37.40
2018-02-20T07:50:57.014Z,35.60
2018-02-20T07:51:56.450Z,37.50
2018-02-20T07:52:57.257Z,35.50
2018-02-20T07:53:57.212Z,35.80
2018-02-20T07:54:57.580Z,35.70
2018-02-20T07:55:56.937Z,35.50
2018-02-20T07:56:56.316Z,35.50
2018-02-20T07:57:56.748Z,35.40
2018-02-20T07:58:57.672Z,34.80
2018-02-20T07:59:57.229Z,36.00
2018-02-20T08:00:57.578Z,35.00
2018-02-20T08:01:57.546Z,35.80
2018-02-20T08:02:57.409Z,33.80
2018-02-20T08:03:57.348Z,35.50
2018-02-20T08:05:18.545Z,34.20
2018-02-20T08:06:19.411Z,36.10
2018-02-20T08:07:19.154Z,35.40
2018-02-20T08:08:18.899Z,34.30
2018-02-20T08:09:40.733Z,35.50
2018-02-20T08:10:41.229Z,35.90
2018-02-20T08:11:41.015Z,36.20
2018-02-20T08:12:40.941Z,35.10
2018-02-20T08:13:41.001Z,36.40
2018-02-20T08:14:40.722Z,34.90
2018-02-20T08:15:41.610Z,35.30
2018-02-20T08:16:41.279Z,35.30
2018-02-20T08:17:41.042Z,35.60
2018-02-20T08:18:41.093Z,34.50
2018-02-20T08:20:01.817Z,35.50
2018-02-20T08:21:02.756Z,35.60
2018-02-20T08:22:02.565Z,35.20
2018-02-20T08:23:23.740Z,35.80
2018-02-20T08:24:24.804Z,35.60
2018-02-20T08:25:24.679Z,37.30
2018-02-20T08:26:24.686Z,37.00
2018-02-20T08:27:24.279Z,36.70
2018-02-20T08:28:24.770Z,37.10
2018-02-20T08:29:24.242Z,35.20
2018-02-20T08:30:23.785Z,36.00
2018-02-20T08:31:24.117Z,35.70
2018-02-20T08:32:45.926Z,34.40
2018-02-20T08:33:46.572Z,34.40
2018-02-20T08:34:46.781Z,35.30
2018-02-20T08:35:46.748Z,35.40
2018-02-20T08:36:47.737Z,34.70
2018-02-20T08:37:46.475Z,33.50
2018-02-20T08:38:46.264Z,33.90
2018-02-20T08:39:47.079Z,36.00
2018-02-20T08:40:46.724Z,35.40
2018-02-20T08:41:47.133Z,33.40
2018-02-20T08:42:46.652Z,34.00
2018-02-20T08:43:45.930Z,34.00
2018-02-20T08:45:35.452Z,32.30
2018-02-20T08:46:35.294Z,31.60
2018-02-20T08:47:35.476Z,33.70
2018-02-20T08:48:35.392Z,32.30
2018-02-20T08:49:35.407Z,31.70
2018-02-20T08:50:35.839Z,33.50
2018-02-20T08:51:36.021Z,33.20
2018-02-20T08:52:35.925Z,32.40
2018-02-20T08:53:57.177Z,34.00
2018-02-20T08:54:57.867Z,31.50
2018-02-20T08:55:57.591Z,31.50
2018-02-20T08:56:57.392Z,32.10
2018-02-20T08:57:57.590Z,32.90
2018-02-20T08:58:57.409Z,32.40
2018-02-20T09:00:18.702Z,32.00
2018-02-20T09:01:19.333Z,32.40
2018-02-20T09:02:19.203Z,31.60
2018-02-20T09:03:18.678Z,32.50
2018-02-20T09:04:19.527Z,32.20
2018-02-20T09:05:19.598Z,33.00
2018-02-20T09:06:19.587Z,32.40
2018-02-20T09:07:22.572Z,32.40
2018-02-20T09:08:21.339Z,32.50
2018-02-20T09:09:21.501Z,32.60
2018-02-20T09:10:19.021Z,31.30
2018-02-20T09:11:18.519Z,30.30
2018-02-20T09:12:19.594Z,32.30
2018-02-20T09:13:19.585Z,32.40
2018-02-20T09:14:19.032Z,33.20
2018-02-20T09:15:18.963Z,31.90
2018-02-20T09:16:18.963Z,33.30
2018-02-20T09:17:18.888Z,32.70
2018-02-20T09:18:18.493Z,32.90
2018-02-20T09:19:19.226Z,32.20
2018-02-20T09:20:18.870Z,31.80
2018-02-20T09:22:01.779Z,30.90
2018-02-20T09:23:02.547Z,31.20
2018-02-20T09:24:02.511Z,32.20
2018-02-20T09:25:02.304Z,32.40
2018-02-20T09:26:01.960Z,32.10
2018-02-20T09:27:02.733Z,31.30
2018-02-20T09:28:05.336Z,31.10
2018-02-20T09:29:03.236Z,32.70
2018-02-20T09:30:01.817Z,32.40
2018-02-20T09:31:05.699Z,30.50
2018-02-20T09:32:02.559Z,31.00
2018-02-20T09:33:02.491Z,30.40
2018-02-20T09:34:02.406Z,31.10
2018-02-20T09:35:02.194Z,30.00
2018-02-20T09:36:03.236Z,30.90
2018-02-20T09:37:03.104Z,32.40
2018-02-20T09:38:03.083Z,31.30
2018-02-20T09:39:07.325Z,30.70
2018-02-20T09:40:02.028Z,30.70
2018-02-20T09:41:02.928Z,32.50
2018-02-20T09:42:46.902Z,33.00
2018-02-20T09:43:47.974Z,30.80
2018-02-20T09:44:47.882Z,31.10
2018-02-20T09:45:47.769Z,31.60
2018-02-20T09:46:47.697Z,32.30
2018-02-20T09:47:47.188Z,30.60
2018-02-20T09:48:46.967Z,31.60
2018-02-20T09:50:07.839Z,31.40
2018-02-20T09:51:08.365Z,31.00
2018-02-20T09:52:29.364Z,30.10
2018-02-20T09:53:29.858Z,29.10
2018-02-20T09:54:29.792Z,28.40
2018-02-20T09:55:29.601Z,28.90
2018-02-20T09:56:30.447Z,27.00
2018-02-20T09:57:30.249Z,27.10
2018-02-20T09:58:29.855Z,28.40
2018-02-20T09:59:29.899Z,28.90
2018-02-20T10:00:29.544Z,28.70
2018-02-20T10:01:30.249Z,27.40
2018-02-20T10:02:30.198Z,28.10
2018-02-20T10:03:29.800Z,29.40
2018-02-20T10:04:29.835Z,28.40
2018-02-20T10:05:30.319Z,29.70
2018-02-20T10:06:29.956Z,28.70
2018-02-20T10:07:29.830Z,28.40
2018-02-20T10:08:29.445Z,27.90
2018-02-20T10:09:30.068Z,25.40
2018-02-20T10:12:01.641Z,27.20
2018-02-20T10:13:03.620Z,25.50
2018-02-20T10:14:01.443Z,26.10
2018-02-20T10:15:01.397Z,25.10
2018-02-20T10:16:01.318Z,24.60
2018-02-20T10:17:23.079Z,25.60
2018-02-20T10:18:46.777Z,24.80
2018-02-20T10:20:29.809Z,24.20
2018-02-20T10:21:30.884Z,25.30
2018-02-20T10:22:30.813Z,24.60
2018-02-20T10:23:30.658Z,24.90
2018-02-20T10:24:52.998Z,25.00
2018-02-20T10:25:53.388Z,24.60
2018-02-20T10:26:53.033Z,23.90
2018-02-20T10:27:52.902Z,24.60
2018-02-20T10:28:53.681Z,23.80
2018-02-20T10:29:53.653Z,24.90
2018-02-20T10:30:53.072Z,25.60
2018-02-20T10:31:52.893Z,24.10
2018-02-20T10:32:53.425Z,24.10
2018-02-20T10:33:52.845Z,23.50
2018-02-20T10:34:53.880Z,22.90
2018-02-20T10:35:52.816Z,23.70
2018-02-20T10:36:53.423Z,24.00
2018-02-20T10:37:53.610Z,22.90
2018-02-20T10:39:15.062Z,23.50
2018-02-20T10:40:14.997Z,23.70
2018-02-20T10:41:15.878Z,23.80
2018-02-20T10:42:15.816Z,22.20
2018-02-20T10:43:15.718Z,24.50
2018-02-20T10:44:15.206Z,24.50
2018-02-20T10:45:37.878Z,23.60
2018-02-20T10:46:36.882Z,22.90
2018-02-20T10:47:58.878Z,22.20
2018-02-20T10:48:59.161Z,23.50
2018-02-20T10:49:59.656Z,22.20
2018-02-20T10:50:58.338Z,21.90
2018-02-20T10:51:57.947Z,22.90
2018-02-20T10:52:58.849Z,22.40
2018-02-20T10:53:58.902Z,22.70
2018-02-20T10:54:58.875Z,20.90
2018-02-20T10:55:58.261Z,23.00
2018-02-20T10:56:58.717Z,22.60
2018-02-20T10:57:58.592Z,22.00
2018-02-20T10:58:58.355Z,22.30
2018-02-20T11:00:19.373Z,21.70
2018-02-20T11:01:20.168Z,22.10
2018-02-20T11:02:19.796Z,21.30
2018-02-20T11:03:42.441Z,21.20
2018-02-20T11:04:43.397Z,22.70
2018-02-20T11:06:25.834Z,22.30
2018-02-20T11:07:26.298Z,22.60
2018-02-20T11:08:26.325Z,22.30
2018-02-20T11:09:26.238Z,23.00
2018-02-20T11:10:25.874Z,23.50
2018-02-20T11:11:26.368Z,23.10
2018-02-20T11:12:25.964Z,22.00
2018-02-20T11:13:27.013Z,21.80
2018-02-20T11:14:27.039Z,23.20
2018-02-20T11:15:27.122Z,24.70
2018-02-20T11:16:26.571Z,22.90
2018-02-20T11:17:26.568Z,22.70
2018-02-20T11:18:26.108Z,23.40
2018-02-20T11:19:27.102Z,23.80
2018-02-20T11:20:27.039Z,24.90
2018-02-20T11:21:26.657Z,23.90
2018-02-20T11:22:26.301Z,24.40
2018-02-20T11:23:26.751Z,24.60
2018-02-20T11:24:26.632Z,23.80
2018-02-20T11:25:26.966Z,24.80
2018-02-20T11:26:27.073Z,25.10
2018-02-20T11:27:48.756Z,23.80
2018-02-20T11:28:49.313Z,24.40
2018-02-20T11:29:50.129Z,24.00
2018-02-20T11:30:48.638Z,23.60
2018-02-20T11:31:49.755Z,23.90
2018-02-20T11:32:48.416Z,24.00
2018-02-20T11:33:48.829Z,22.50
2018-02-20T11:34:48.941Z,22.60
2018-02-20T11:35:48.487Z,23.40
2018-02-20T11:36:48.918Z,23.10
2018-02-20T11:37:48.645Z,23.80
2018-02-20T11:38:49.229Z,23.50
2018-02-20T11:39:48.815Z,23.40
2018-02-20T11:40:48.693Z,23.50
2018-02-20T11:41:49.217Z,24.60
2018-02-20T11:42:48.890Z,23.00
2018-02-20T11:43:48.966Z,23.70
2018-02-20T11:44:48.659Z,23.10
2018-02-20T11:45:49.709Z,24.30
2018-02-20T11:46:48.874Z,22.20
2018-02-20T11:47:48.976Z,22.80
2018-02-20T11:48:49.077Z,23.50
2018-02-20T11:49:48.998Z,22.50
2018-02-20T11:50:49.606Z,22.80
2018-02-20T11:51:49.465Z,22.70
2018-02-20T11:52:49.198Z,22.10
2018-02-20T11:53:49.183Z,23.80
2018-02-20T11:54:48.841Z,23.80
2018-02-20T11:55:48.588Z,22.60
2018-02-20T11:56:49.712Z,22.90
2018-02-20T11:57:49.732Z,22.60
2018-02-20T11:58:49.618Z,22.80
2018-02-20T11:59:49.354Z,22.60
2018-02-20T12:00:49.586Z,22.30
2018-02-20T12:01:49.699Z,22.40
2018-02-20T12:02:48.774Z,23.90
2018-02-20T12:03:49.785Z,23.10
2018-02-20T12:05:11.246Z,22.60
2018-02-20T12:07:37.850Z,23.40
2018-02-20T12:08:38.264Z,23.60
2018-02-20T12:09:38.417Z,23.60
2018-02-20T12:10:38.274Z,23.50
2018-02-20T12:11:37.885Z,23.20
2018-02-20T12:12:38.742Z,22.40
2018-02-20T12:13:38.476Z,23.70
2018-02-20T12:14:38.316Z,24.40
2018-02-20T12:15:38.180Z,23.00
2018-02-20T12:16:37.779Z,23.30
2018-02-20T12:17:38.586Z,21.70
2018-02-20T12:18:38.125Z,21.40
2018-02-20T12:20:42.486Z,20.60
2018-02-20T12:21:42.984Z,21.30
2018-02-20T12:22:42.797Z,21.30
2018-02-20T12:23:43.816Z,22.10
2018-02-20T12:24:43.375Z,21.40
2018-02-20T12:25:43.307Z,22.50
2018-02-20T12:26:42.739Z,23.30
2018-02-20T12:27:43.301Z,21.90
2018-02-20T12:28:42.929Z,23.00
2018-02-20T12:30:04.939Z,22.60
2018-02-20T12:31:26.551Z,23.40
2018-02-20T12:32:27.499Z,21.70
2018-02-20T12:33:27.431Z,21.60
2018-02-20T12:34:26.223Z,21.60
2018-02-20T12:35:49.448Z,21.70
2018-02-20T12:36:50.363Z,21.10
2018-02-20T12:37:49.854Z,20.30
2018-02-20T12:39:11.652Z,20.90
2018-02-20T12:40:12.522Z,21.50
2018-02-20T12:41:12.071Z,21.40
2018-02-20T12:42:55.223Z,21.60
2018-02-20T12:43:56.234Z,21.80
2018-02-20T12:45:18.132Z,23.60
2018-02-20T12:46:17.936Z,25.10
2018-02-20T12:47:19.018Z,23.00
2018-02-20T12:48:40.083Z,23.10
2018-02-20T12:49:41.009Z,24.10
2018-02-20T12:50:40.457Z,24.40
2018-02-20T12:51:40.846Z,24.90
2018-02-20T12:52:40.620Z,24.70
2018-02-20T12:53:40.763Z,24.30
2018-02-20T12:54:40.457Z,25.20
2018-02-20T12:55:40.040Z,25.70
2018-02-20T12:56:40.696Z,25.60
2018-02-20T12:57:40.754Z,25.50
2018-02-20T12:58:40.359Z,25.40
2018-02-20T12:59:41.237Z,25.30
2018-02-20T13:00:40.751Z,24.30
2018-02-20T13:01:40.562Z,24.20
2018-02-20T13:02:40.474Z,23.60
2018-02-20T13:03:40.352Z,24.10
2018-02-20T13:04:39.976Z,23.40
2018-02-20T13:05:41.916Z,24.30
2018-02-20T13:06:41.405Z,25.30
2018-02-20T13:08:01.630Z,23.80
2018-02-20T13:09:24.051Z,24.10
2018-02-20T13:10:23.708Z,23.40
2018-02-20T13:11:24.075Z,23.70
2018-02-20T13:12:24.536Z,23.40
2018-02-20T13:13:24.163Z,23.00
2018-02-20T13:14:25.015Z,22.90
2018-02-20T13:15:25.454Z,22.50
2018-02-20T13:16:24.416Z,23.30
2018-02-20T13:17:24.370Z,21.70
2018-02-20T13:18:24.180Z,21.30
2018-02-20T13:19:24.896Z,21.50
2018-02-20T13:20:47.267Z,22.70
2018-02-20T13:21:47.241Z,22.20
2018-02-20T13:22:47.626Z,21.50
2018-02-20T13:23:46.527Z,22.50
2018-02-20T13:24:46.662Z,21.30
2018-02-20T13:25:46.438Z,22.00
2018-02-20T13:26:46.380Z,20.40